Weather at İskenderun Airport [CLOSED]

Public forecast

Using degrees Celsius for public forecast. Weather courtesy of forecast.io.

Closest aviation weather report (METAR) to İskenderun Airport

Closest report is Hatay Airport, 14.1 nm (26.2 km) SSE.

2024/05/28 00:50 (retrieved 1 hour ago)

LTDA 280050Z 21017KT 9999 BKN030 23/17 Q1008 NOSIG

Closest aviation forecast (TAF) to İskenderun Airport

Forecast is more than 6 hours old.

Closest forecast is Erbil International Airport, 377.8 nm (699.7 km) E.

2024/05/27 18:03 (retrieved 8 hours ago)

TAF ORER 271700Z 2718/2818 23004KT 8000 NSC BECMG 2720/2722 VRB02KT